Погода METAR - Новокузнецк

Кемерово, Новокузнецк Абакан, Красноярск, Новосибирск
Код METAR: UNWW 092200Z 17004MPS 9999 BKN026CB 14/12 Q1001 R19/090055 NOSIG RMK QFE724

Погода - Сейчас

Время: 2026-05-10 05:00, местное
Направление ветра: Юг (170°)
Скорость ветра: 4 м/с
Видимость: более 10км
Температура: 14°C
Точка росы: 12°C
Атмосферное давление: 1001 гПа

Архив погоды

Время, местное Направление Скорость, м/с Температура, °C Точка росы, °C Давление, гПа Видимость
2026-05-10 05:00 Ю (170°) 4 14 12 1001 более 10км
2026-05-10 02:00 ЮЮВ (160°) 5 15 12 1003 более 10км
2026-05-08 19:30 ЗЮЗ (240°) 2 17 12 1013 более 10км
2026-05-08 06:30 ЮВ (120°) 2 10 10 1014 менее 6 км
2026-05-08 05:30 В (90°) 1 9 9 1014 менее 3.1 км
2026-05-07 21:30 В (80°) 1 16 9 1016 более 10км, отсутствие осадков и облаков ниже 1500 м
2026-05-03 16:00 ЗЮЗ (250°) 8 16 -6 1015 более 10км, отсутствие осадков и облаков ниже 1500 м
2026-05-02 07:30 Переменный 1 8 -2 1012 более 10км, отсутствие осадков и облаков ниже 1500 м
2026-05-02 03:00 Ю (170°) 1 7 -8 1013 более 10км, отсутствие осадков и облаков ниже 1500 м
2026-05-01 10:00 Переменный 1 16 -3 1021 более 10км, отсутствие осадков и облаков ниже 1500 м
2026-04-29 20:00 ВЮВ (110°) 2 15 -4 1028 более 10км, отсутствие осадков и облаков ниже 1500 м
2026-04-27 14:30 ЮЗ (210°) 5 9 6 1021 более 10км
2026-04-25 11:00 Ю (190°) 4 18 4 1019 более 10км, отсутствие осадков и облаков ниже 1500 м
2026-04-24 15:00 ЮЗ (230°) 5 12 3 1019 менее 0.2 км
2026-04-22 22:00 С (360°) 3 9 -1 1011 более 10км, отсутствие осадков и облаков ниже 1500 м
2026-04-19 23:00 ЮЗ (220°) 6 9 -2 1017 более 10км
2026-04-15 11:00 ЮЮЗ (200°) 4 2 -9 1013 менее 0.16 км
2026-04-13 07:00 ЗЮЗ (250°) 5 3 1 1014 более 10км
2026-04-11 07:00 ССЗ (330°) 3 -4 -10 1027 более 10км
2026-04-09 13:30 С (350°) 3 6 -6 1021 менее 0.3 км
2026-04-08 13:30 ЮЮЗ (200°) 3 13 2 1003 менее 0.17 км
2026-04-06 09:30 ЗЮЗ (240°) 5 9 6 1006 более 10км
2026-04-06 06:30 ЮЗ (230°) 4 7 4 1004 более 10км
2026-04-04 09:00 ВСВ (70°) 1 1 -3 1017 менее 9 км
2026-04-03 21:00 Ю (190°) 3 4 -3 1018 более 10км, отсутствие осадков и облаков ниже 1500 м
2026-04-03 13:30 ЗЮЗ (250°) 5 8 -3 1017 более 10км, отсутствие осадков и облаков ниже 1500 м
2026-04-01 00:00 З (270°) 1 1 -7 1016 более 10км, отсутствие осадков и облаков ниже 1500 м
2026-03-29 16:00 ЮЗ (230°) 4 6 -3 1015 более 10км
2026-03-28 15:00 Штиль 0 6 0 1023 более 10км, отсутствие осадков и облаков ниже 1500 м
2026-03-28 11:30 Переменный 1 -1 -2 1026 менее 0.2 км
2026-03-28 11:00 Переменный 1 -2 -2 1026 менее 0.2 км
2026-03-27 12:30 С (360°) 1 3 -1 1026 более 10км
2026-03-26 18:00 Ю (170°) 3 4 -6 1023 более 10км
2026-03-25 22:00 Ю (190°) 4 0 -7 1026 более 10км, отсутствие осадков и облаков ниже 1500 м
2026-03-25 01:30 ЮЗ (230°) 3 -4 -8 1026 более 10км, отсутствие осадков и облаков ниже 1500 м
2026-03-24 00:00 ЮЮВ (160°) 2 0 -4 1012 более 10км, отсутствие осадков и облаков ниже 1500 м
2026-03-23 06:30 ЮЗ (230°) 5 0 -4 1014 более 10км
2026-03-23 00:30 ЗЮЗ (240°) 6 1 -4 1012 более 10км
2026-03-22 15:30 ЮЗ (220°) 6 5 -6 1010 более 10км, отсутствие осадков и облаков ниже 1500 м
2026-03-22 01:00 Ю (170°) 4 -1 -6 1016 более 10км, отсутствие осадков и облаков ниже 1500 м
2026-03-21 04:00 ЮЮЗ (200°) 6 -1 -3 1020 более 10км
2026-03-19 23:00 ЮЮЗ (200°) 3 -3 -4 1018 менее 2 км
2026-03-17 22:00 Штиль 0 0 -6 1024 более 10км, отсутствие осадков и облаков ниже 1500 м
2026-03-16 18:00 ЮВ (130°) 2 -7 -16 1035 более 10км
2026-03-14 03:00 ЗЮЗ (260°) 4 -7 -10 1031 более 10км
2026-03-14 00:30 З (280°) 6 -4 -9 1029 более 10км
2026-03-10 23:30 ЮЗ (210°) 6 -2 -4 1011 менее 6 км
2026-03-10 18:00 ЮЗ (210°) 6 -2 -5 1010 более 10км